Amalga, UT

1:03 AM MST on February 06, 2016 (GMT -0700)
Northwest Smithfield | | Change Station
CLOSE
Current Station
Personal Weather Station
Location: Smithfield, UT
Elevation: 4590 ft
Nearby Weather Stations

Elev 4590 ft 41.84 °N, 111.84 °W | Updated 11 minutes ago

Fog
Fog
27.1 °F
Feels Like 27 °F
N
0.0
Wind Variable Wind from East

Today
High -- | Low -- °F
--% Chance of Precip.
Yesterday
High -- | Low -- °F
Precip. -- in
Pressure 30.61 in
Visibility 1.0 miles
Clouds Overcast 4300 ft
Windchill 27 °F
Dew Point 25 °F
Humidity 92%
Rainfall 0.00 in
Snow Depth Not available.
7:34 AM 5:48 PM
Waning Crescent, 7% visible
METAR KLGU 060751Z AUTO 00000KT 1SM BR OVC043 M06/M06 A3051 RMK AO2 SLP366 T10561056
Pressure 30.61 in
Visibility 1.0 miles
Clouds Overcast 4300 ft
Windchill 27 °F
Dew Point 25 °F
Humidity 92%
Rainfall 0.00 in
Snow Depth Not available.
7:34 AM 5:48 PM
Waning Crescent, 7% visible
METAR KLGU 060751Z AUTO 00000KT 1SM BR OVC043 M06/M06 A3051 RMK AO2 SLP366 T10561056

10-Day Weather Forecast

Almanac

Astronomy

Feb. 06, 2016 Rise Set
Actual Time
Civil Twilight
Nautical Twilight
Astronomical Twilight
Moon
Length of Visible Light
Length of Day
Tomorrow will be .
, % of the Moon is Illuminated

Today's Extremes

State Highs State Lows

Community

WunderPhotos

Upload Photos

1,890,933 photos uploaded!

WunderBlog® & News

Nearby

Air Quality

  Air Quality AQ Index Pollutant
Not available.

Snow Depth

Station Depth Elevation

Earthquake Activity

City Distance Mag. Time & Date
Minimum magnitude displayed is 2.5.

Coastal Water Temperatures

Place Temperature

Stations

Nearby Weather Stations

Station Location Temp. Windchill Dew Point Humidity Wind Precip. Elev Updated Type
                   

Watches & Warnings

There are currently no watches in effect.